createdAt,value
2023-02-03T00:01:08.288Z,3.47
2023-02-03T00:03:35.310Z,1.80
2023-02-03T00:06:03.891Z,2.30
2023-02-03T00:08:31.512Z,2.67
2023-02-03T00:10:59.549Z,2.78
2023-02-03T00:13:26.623Z,2.30
2023-02-03T00:15:53.568Z,3.30
2023-02-03T00:18:20.308Z,2.53
2023-02-03T00:20:47.259Z,2.63
2023-02-03T00:23:14.034Z,1.73
2023-02-03T00:25:41.342Z,3.17
2023-02-03T00:28:08.241Z,2.33
2023-02-03T00:30:36.367Z,4.07
2023-02-03T00:33:03.848Z,2.80
2023-02-03T00:35:31.231Z,2.13
2023-02-03T00:37:58.561Z,2.47
2023-02-03T00:40:26.824Z,1.73
2023-02-03T00:42:54.871Z,4.50
2023-02-03T00:45:21.696Z,1.95
2023-02-03T00:47:48.601Z,3.65
2023-02-03T00:50:15.589Z,4.05
2023-02-03T00:52:42.358Z,3.80
2023-02-03T00:55:09.366Z,2.38
2023-02-03T00:57:36.238Z,2.13
2023-02-03T01:00:04.302Z,2.40
2023-02-03T01:02:31.177Z,2.03
2023-02-03T01:04:58.036Z,1.38
2023-02-03T01:07:26.466Z,2.30
2023-02-03T01:09:54.289Z,2.47
2023-02-03T01:12:21.086Z,2.50
2023-02-03T01:14:47.828Z,2.23
2023-02-03T01:17:14.691Z,2.20
2023-02-03T01:19:41.524Z,1.67
2023-02-03T01:22:08.399Z,3.17
2023-02-03T01:24:35.082Z,2.30
2023-02-03T01:27:01.871Z,2.92
2023-02-03T01:29:28.804Z,2.28
2023-02-03T01:31:55.693Z,2.50
2023-02-03T01:34:22.553Z,2.65
2023-02-03T01:36:51.724Z,3.05
2023-02-03T01:39:18.655Z,2.35
2023-02-03T01:41:45.912Z,2.13
2023-02-03T01:44:34.021Z,3.67
2023-02-03T01:47:01.403Z,3.25
2023-02-03T01:49:36.009Z,2.67
2023-02-03T01:52:03.938Z,3.08
2023-02-03T01:54:37.481Z,1.75
2023-02-03T01:57:10.426Z,2.20
2023-02-03T01:59:37.330Z,3.23
2023-02-03T02:02:06.602Z,2.90
2023-02-03T02:05:03.349Z,2.22
2023-02-03T02:07:32.371Z,2.80
2023-02-03T02:10:00.565Z,2.70
2023-02-03T02:12:27.506Z,1.57
2023-02-03T02:14:54.679Z,2.35
2023-02-03T02:17:31.397Z,2.30
2023-02-03T02:20:13.382Z,2.30
2023-02-03T02:23:07.500Z,2.28
2023-02-03T02:26:11.948Z,3.07
2023-02-03T02:28:47.445Z,1.90
2023-02-03T02:31:36.644Z,2.53
2023-02-03T02:34:31.516Z,3.03
2023-02-03T02:37:19.658Z,2.60
2023-02-03T02:40:16.212Z,1.80
2023-02-03T02:42:51.952Z,3.90
2023-02-03T02:45:29.596Z,1.55
2023-02-03T02:48:04.844Z,2.42
2023-02-03T02:50:37.492Z,2.20
2023-02-03T02:53:07.156Z,1.50
2023-02-03T02:55:37.701Z,2.20
2023-02-03T02:58:11.497Z,4.17
2023-02-03T03:00:40.699Z,2.42
2023-02-03T03:03:19.347Z,1.50
2023-02-03T03:05:56.323Z,2.10
2023-02-03T03:08:41.449Z,1.40
2023-02-03T03:11:11.056Z,1.90
2023-02-03T03:13:47.928Z,1.40
2023-02-03T03:16:21.629Z,3.00
2023-02-03T03:19:00.395Z,2.58
2023-02-03T03:21:31.676Z,1.20
2023-02-03T03:24:03.770Z,2.03
2023-02-03T03:27:03.815Z,1.65
2023-02-03T03:29:35.576Z,1.90
2023-02-03T03:32:02.951Z,2.08
2023-02-03T03:34:31.384Z,2.72
2023-02-03T03:37:03.657Z,4.10
2023-02-03T03:39:47.197Z,2.50
2023-02-03T03:42:37.977Z,1.75
2023-02-03T03:45:16.709Z,1.52
2023-02-03T03:47:55.191Z,1.50
2023-02-03T03:50:31.597Z,1.63
2023-02-03T03:53:01.494Z,1.83
2023-02-03T03:55:34.352Z,1.92
2023-02-03T03:58:06.025Z,1.67
2023-02-03T04:00:35.480Z,1.85
2023-02-03T04:03:19.093Z,1.73
2023-02-03T04:05:46.403Z,2.15
2023-02-03T04:08:13.175Z,2.53
2023-02-03T04:10:42.195Z,2.70
2023-02-03T04:13:10.314Z,1.33
2023-02-03T04:15:37.742Z,2.17
2023-02-03T04:18:05.440Z,1.73
2023-02-03T04:20:33.633Z,1.98
2023-02-03T04:23:00.460Z,1.90
2023-02-03T04:25:27.263Z,1.23
2023-02-03T04:27:54.927Z,2.25
2023-02-03T04:30:24.430Z,1.38
2023-02-03T04:32:51.296Z,2.73
2023-02-03T04:35:18.144Z,2.08
2023-02-03T04:37:45.325Z,2.15
2023-02-03T04:40:12.717Z,2.67
2023-02-03T04:42:40.586Z,2.13
2023-02-03T04:45:09.933Z,2.17
2023-02-03T04:47:36.972Z,1.47
2023-02-03T04:50:04.201Z,2.05
2023-02-03T04:52:31.082Z,1.63
2023-02-03T04:54:57.795Z,2.60
2023-02-03T04:57:24.560Z,1.73
2023-02-03T04:59:51.301Z,3.15
2023-02-03T05:02:17.984Z,2.83
2023-02-03T05:04:44.768Z,1.83
2023-02-03T05:07:11.663Z,2.17
2023-02-03T05:09:38.372Z,2.13
2023-02-03T05:12:05.340Z,2.50
2023-02-03T05:14:32.019Z,2.60
2023-02-03T05:16:58.837Z,1.33
2023-02-03T05:19:25.630Z,2.47
2023-02-03T05:21:52.432Z,2.40
2023-02-03T05:24:19.219Z,1.50
2023-02-03T05:26:45.938Z,1.40
2023-02-03T05:29:12.706Z,1.52
2023-02-03T05:31:39.418Z,1.58
2023-02-03T05:34:06.769Z,1.52
2023-02-03T05:36:33.613Z,1.80
2023-02-03T05:39:00.344Z,2.15
2023-02-03T05:41:45.556Z,2.28
2023-02-03T05:44:12.376Z,2.10
2023-02-03T05:46:39.078Z,2.77
2023-02-03T05:49:05.881Z,1.92
2023-02-03T05:51:32.571Z,1.88
2023-02-03T05:53:59.293Z,2.07
2023-02-03T05:56:26.455Z,1.00
2023-02-03T05:58:54.352Z,2.10
2023-02-03T06:01:20.997Z,2.03
2023-02-03T06:03:48.610Z,1.17
2023-02-03T06:06:17.906Z,1.88
2023-02-03T06:08:44.974Z,2.20
2023-02-03T06:11:11.832Z,1.70
2023-02-03T06:13:38.779Z,1.90
2023-02-03T06:16:05.823Z,2.90
2023-02-03T06:18:32.802Z,1.80
2023-02-03T06:20:59.648Z,2.17
2023-02-03T06:23:26.451Z,1.08
2023-02-03T06:25:53.290Z,2.55
2023-02-03T06:28:20.215Z,0.98
2023-02-03T06:30:51.274Z,1.20
2023-02-03T06:33:18.784Z,1.73
2023-02-03T06:35:45.589Z,2.00
2023-02-03T06:38:12.385Z,2.43
2023-02-03T06:40:41.540Z,1.40
2023-02-03T06:43:08.398Z,2.38
2023-02-03T06:45:35.089Z,1.20
2023-02-03T06:48:01.806Z,2.22
2023-02-03T06:50:31.265Z,1.58
2023-02-03T06:52:58.047Z,1.40
2023-02-03T06:55:24.856Z,1.10
2023-02-03T06:57:51.889Z,1.27
2023-02-03T07:00:19.504Z,2.28
2023-02-03T07:02:52.746Z,1.47
2023-02-03T07:05:19.759Z,2.22
2023-02-03T07:07:46.667Z,2.33
2023-02-03T07:10:13.461Z,2.20
2023-02-03T07:12:40.178Z,1.52
2023-02-03T07:15:07.411Z,1.92
2023-02-03T07:17:36.254Z,3.20
2023-02-03T07:20:03.199Z,1.83
2023-02-03T07:22:30.108Z,1.83
2023-02-03T07:24:56.926Z,1.70
2023-02-03T07:27:27.971Z,1.42
2023-02-03T07:29:54.732Z,2.47
2023-02-03T07:32:21.496Z,2.30
2023-02-03T07:34:48.188Z,2.30
2023-02-03T07:37:14.948Z,3.23
2023-02-03T07:39:42.287Z,2.40
2023-02-03T07:42:08.993Z,3.35
2023-02-03T07:44:38.632Z,2.40
2023-02-03T07:47:05.435Z,1.38
2023-02-03T07:49:32.123Z,3.13
2023-02-03T07:51:58.856Z,2.80
2023-02-03T07:54:25.633Z,6.50
2023-02-03T07:56:55.517Z,7.40
2023-02-03T07:59:22.432Z,4.28
2023-02-03T08:01:49.365Z,4.97
2023-02-03T08:04:17.233Z,4.18
2023-02-03T08:06:44.419Z,5.72
2023-02-03T08:09:11.099Z,5.40
2023-02-03T08:11:37.814Z,3.80
2023-02-03T08:14:04.552Z,4.80
2023-02-03T08:16:31.329Z,4.78
2023-02-03T08:18:58.312Z,4.43
2023-02-03T08:21:25.216Z,5.07
2023-02-03T08:23:54.088Z,2.92
2023-02-03T08:26:20.820Z,2.95
2023-02-03T08:28:50.827Z,4.40
2023-02-03T08:31:18.043Z,4.45
2023-02-03T08:33:47.320Z,3.85
2023-02-03T08:36:14.094Z,2.70
2023-02-03T08:38:41.782Z,4.05
2023-02-03T08:41:13.543Z,4.50
2023-02-03T08:43:40.387Z,4.32
2023-02-03T08:46:08.797Z,5.00
2023-02-03T08:48:35.759Z,3.33
2023-02-03T08:51:02.621Z,3.50
2023-02-03T08:53:29.497Z,3.90
2023-02-03T08:55:56.398Z,3.30
2023-02-03T08:58:23.199Z,2.92
2023-02-03T09:00:53.039Z,3.00
2023-02-03T09:03:20.086Z,4.65
2023-02-03T09:05:49.180Z,2.63
2023-02-03T09:08:16.229Z,3.70
2023-02-03T09:10:45.106Z,2.72
2023-02-03T09:13:11.965Z,2.70
2023-02-03T09:15:38.770Z,2.53
2023-02-03T09:18:05.514Z,4.82
2023-02-03T09:20:32.546Z,4.95
2023-02-03T09:23:00.297Z,5.05
2023-02-03T09:25:27.078Z,3.55
2023-02-03T09:27:53.914Z,4.67
2023-02-03T09:30:22.984Z,3.80
2023-02-03T09:32:54.367Z,4.72
2023-02-03T09:35:21.570Z,5.78
2023-02-03T09:37:48.829Z,3.88
2023-02-03T09:40:30.499Z,3.63
2023-02-03T09:43:22.096Z,3.67
2023-02-03T09:45:50.193Z,4.13
2023-02-03T09:48:24.388Z,4.33
2023-02-03T09:50:52.739Z,2.58
2023-02-03T09:53:28.325Z,3.28
2023-02-03T09:55:56.053Z,4.70
2023-02-03T09:58:23.378Z,4.53
2023-02-03T10:00:55.592Z,3.08
2023-02-03T10:03:43.306Z,3.42
2023-02-03T10:06:28.719Z,3.88
2023-02-03T10:09:08.057Z,3.50
2023-02-03T10:12:05.720Z,5.22
2023-02-03T10:14:35.476Z,2.50
2023-02-03T10:17:23.419Z,4.68
2023-02-03T10:19:56.905Z,3.25
2023-02-03T10:22:28.337Z,3.88
2023-02-03T10:25:05.364Z,4.45
2023-02-03T10:27:36.604Z,5.95
2023-02-03T10:30:25.473Z,5.40
2023-02-03T10:33:13.069Z,5.40
2023-02-03T10:36:19.143Z,5.00
2023-02-03T10:38:48.599Z,3.20
2023-02-03T10:41:17.815Z,2.83
2023-02-03T10:43:48.478Z,3.92
2023-02-03T10:46:17.086Z,4.90
2023-02-03T10:48:43.935Z,3.30
2023-02-03T10:51:26.703Z,3.40
2023-02-03T10:53:53.791Z,4.47
2023-02-03T10:56:31.108Z,2.72
2023-02-03T10:59:00.151Z,3.60
2023-02-03T11:01:38.719Z,3.47
2023-02-03T11:04:07.178Z,5.57
2023-02-03T11:06:36.154Z,2.97
2023-02-03T11:09:27.346Z,4.65
2023-02-03T11:12:17.613Z,3.58
2023-02-03T11:14:49.655Z,5.88
2023-02-03T11:17:24.640Z,3.97
2023-02-03T11:20:02.630Z,5.28
2023-02-03T11:22:37.195Z,5.53
2023-02-03T11:25:23.189Z,4.88
2023-02-03T11:27:50.106Z,6.47
2023-02-03T11:30:25.222Z,5.72
2023-02-03T11:32:53.494Z,5.53
2023-02-03T11:35:25.807Z,6.63
2023-02-03T11:37:55.772Z,5.65
2023-02-03T11:40:38.311Z,5.68
2023-02-03T11:43:25.381Z,8.13
2023-02-03T11:45:54.222Z,6.53
2023-02-03T11:48:32.280Z,6.07
2023-02-03T11:51:12.793Z,7.90
2023-02-03T11:53:57.550Z,6.80
2023-02-03T11:56:42.625Z,6.25
2023-02-03T11:59:21.387Z,5.27
2023-02-03T12:02:09.676Z,6.00
2023-02-03T12:04:54.375Z,4.32
2023-02-03T12:07:48.007Z,7.22
2023-02-03T12:10:30.187Z,6.75
2023-02-03T12:13:10.155Z,5.70
2023-02-03T12:15:57.635Z,7.70
2023-02-03T12:18:47.567Z,6.47
2023-02-03T12:21:56.341Z,6.53
2023-02-03T12:24:56.989Z,6.72
2023-02-03T12:27:44.637Z,7.38
2023-02-03T12:30:33.717Z,5.90
2023-02-03T12:33:23.485Z,6.60
2023-02-03T12:35:59.802Z,9.43
2023-02-03T12:38:39.322Z,6.33
2023-02-03T12:41:16.890Z,6.00
2023-02-03T12:43:50.645Z,7.70
2023-02-03T12:46:36.360Z,4.75
2023-02-03T12:49:21.945Z,6.07
2023-02-03T12:51:55.043Z,6.43
2023-02-03T12:54:40.961Z,7.72
2023-02-03T12:57:22.016Z,6.78
2023-02-03T13:00:26.890Z,6.20
2023-02-03T13:03:02.575Z,6.88
2023-02-03T13:05:54.750Z,6.10
2023-02-03T13:09:02.620Z,5.15
2023-02-03T13:11:40.735Z,8.50
2023-02-03T13:14:20.951Z,7.50
2023-02-03T13:17:03.917Z,6.03
2023-02-03T13:19:45.588Z,4.93
2023-02-03T13:22:15.209Z,8.57
2023-02-03T13:24:48.821Z,5.88
2023-02-03T13:27:27.009Z,7.80
2023-02-03T13:30:22.625Z,7.50
2023-02-03T13:33:22.994Z,7.50
2023-02-03T13:36:07.664Z,5.65
2023-02-03T13:38:43.992Z,4.17
2023-02-03T13:41:14.130Z,6.47
2023-02-03T13:43:50.174Z,4.55
2023-02-03T13:46:31.014Z,6.47
2023-02-03T13:49:00.837Z,5.63
2023-02-03T13:51:34.566Z,5.93
2023-02-03T13:54:07.154Z,5.90
2023-02-03T13:56:34.845Z,5.75
2023-02-03T13:59:05.818Z,5.05
2023-02-03T14:01:39.945Z,3.90
2023-02-03T14:04:09.280Z,4.75
2023-02-03T14:06:36.233Z,3.72
2023-02-03T14:09:44.272Z,3.30
2023-02-03T14:12:41.696Z,6.40
2023-02-03T14:15:31.171Z,6.47
2023-02-03T14:18:07.104Z,4.13
2023-02-03T14:20:42.201Z,4.85
2023-02-03T14:23:20.651Z,3.53
2023-02-03T14:25:57.215Z,3.08
2023-02-03T14:28:53.944Z,4.72
2023-02-03T14:31:23.025Z,3.83
2023-02-03T14:33:57.556Z,4.13
2023-02-03T14:36:41.468Z,4.07
2023-02-03T14:39:20.211Z,4.60
2023-02-03T14:42:13.553Z,2.50
2023-02-03T14:44:49.497Z,5.00
2023-02-03T14:47:36.114Z,4.50
2023-02-03T14:50:17.115Z,4.93
2023-02-03T14:53:01.796Z,2.60
2023-02-03T14:55:53.419Z,4.03
2023-02-03T14:58:31.186Z,4.75
2023-02-03T15:00:59.079Z,2.95
2023-02-03T15:03:30.164Z,9.52
2023-02-03T15:06:03.200Z,3.17
2023-02-03T15:08:44.076Z,2.70
2023-02-03T15:11:23.131Z,3.60
2023-02-03T15:13:51.335Z,4.38
2023-02-03T15:16:23.628Z,3.97
2023-02-03T15:19:00.597Z,4.80
2023-02-03T15:21:27.422Z,3.63
2023-02-03T15:23:54.560Z,4.55
2023-02-03T15:26:27.198Z,6.00
2023-02-03T15:29:02.998Z,6.65
2023-02-03T15:31:38.670Z,3.67
2023-02-03T15:34:20.922Z,2.28
2023-02-03T15:36:54.771Z,2.13
2023-02-03T15:39:24.456Z,3.85
2023-02-03T15:41:54.454Z,4.07
2023-02-03T15:44:31.489Z,3.47
2023-02-03T15:47:02.260Z,2.97
2023-02-03T15:49:38.131Z,3.38
2023-02-03T15:52:15.594Z,2.95
2023-02-03T15:54:53.340Z,2.85
2023-02-03T15:57:33.752Z,2.33
2023-02-03T16:00:24.824Z,3.23
2023-02-03T16:02:52.028Z,4.80
2023-02-03T16:05:32.806Z,4.30
2023-02-03T16:08:25.759Z,3.63
2023-02-03T16:10:54.574Z,2.22
2023-02-03T16:13:26.157Z,3.28
2023-02-03T16:16:18.020Z,3.53
2023-02-03T16:18:56.485Z,3.17
2023-02-03T16:21:28.341Z,3.72
2023-02-03T16:24:33.582Z,4.18
2023-02-03T16:27:26.521Z,3.03
2023-02-03T16:30:25.188Z,3.65
2023-02-03T16:33:29.131Z,4.50
2023-02-03T16:36:16.684Z,2.97
2023-02-03T16:39:09.696Z,2.38
2023-02-03T16:41:56.217Z,4.00
2023-02-03T16:44:41.803Z,2.55
2023-02-03T16:47:43.598Z,2.53
2023-02-03T16:50:41.375Z,3.03
2023-02-03T16:53:17.171Z,2.63
2023-02-03T16:55:44.346Z,3.20
2023-02-03T16:58:12.482Z,3.42
2023-02-03T17:00:52.006Z,2.37
2023-02-03T17:03:22.120Z,1.93
2023-02-03T17:05:53.040Z,2.50
2023-02-03T17:08:25.094Z,1.92
2023-02-03T17:10:51.980Z,3.38
2023-02-03T17:13:20.996Z,2.88
2023-02-03T17:15:52.493Z,2.30
2023-02-03T17:18:20.056Z,2.35
2023-02-03T17:20:48.366Z,4.57
2023-02-03T17:23:22.474Z,2.38
2023-02-03T17:25:50.328Z,2.80
2023-02-03T17:28:18.005Z,2.58
2023-02-03T17:30:44.977Z,2.67
2023-02-03T17:33:12.200Z,3.00
2023-02-03T17:35:43.777Z,2.60
2023-02-03T17:38:12.296Z,2.65
2023-02-03T17:54:28.174Z,2.80
2023-02-03T17:56:55.842Z,2.30
2023-02-03T17:59:22.776Z,2.53
2023-02-03T18:01:53.136Z,2.58
2023-02-03T18:04:20.014Z,2.55
2023-02-03T18:06:49.365Z,3.00
2023-02-03T18:09:16.809Z,2.90
2023-02-03T18:11:46.160Z,2.83
2023-02-03T18:14:14.900Z,3.42
2023-02-03T18:16:44.427Z,2.50
2023-02-03T18:19:15.139Z,3.13
2023-02-03T18:21:43.491Z,2.75
2023-02-03T18:24:12.831Z,3.38
2023-02-03T18:26:50.772Z,2.80
2023-02-03T18:29:18.270Z,3.30
2023-02-03T18:31:45.449Z,2.78
2023-02-03T18:34:12.948Z,2.17
2023-02-03T18:39:08.628Z,2.30
2023-02-03T18:41:38.387Z,2.78
2023-02-03T18:44:05.531Z,2.30
2023-02-03T18:46:32.825Z,2.73
2023-02-03T18:49:00.088Z,2.30
2023-02-03T18:51:28.176Z,2.63
2023-02-03T18:53:59.308Z,3.55
2023-02-03T18:56:34.720Z,2.88
2023-02-03T18:59:05.655Z,2.83
2023-02-03T19:01:33.158Z,3.00
2023-02-03T19:04:03.285Z,3.83
2023-02-03T19:06:33.541Z,3.65
2023-02-03T19:09:01.089Z,2.90
2023-02-03T19:11:28.511Z,2.58
2023-02-03T19:13:55.391Z,2.65
2023-02-03T19:16:22.208Z,3.90
2023-02-03T19:18:48.976Z,2.42
2023-02-03T19:21:20.780Z,3.03
2023-02-03T19:23:50.223Z,2.50
2023-02-03T19:26:17.060Z,2.80
2023-02-03T19:28:43.854Z,2.83
2023-02-03T19:31:15.312Z,2.75
2023-02-03T19:33:42.782Z,3.13
2023-02-03T19:36:11.287Z,2.42
2023-02-03T19:38:38.295Z,3.03
2023-02-03T19:41:07.059Z,2.28
2023-02-03T19:43:33.968Z,3.03
2023-02-03T19:46:00.825Z,2.78
2023-02-03T19:48:27.497Z,3.60
2023-02-03T19:50:56.641Z,3.60
2023-02-03T19:53:24.344Z,2.92
2023-02-03T19:55:51.696Z,3.45
2023-02-03T19:58:18.725Z,3.25
2023-02-03T20:00:45.482Z,3.93
2023-02-03T20:03:14.740Z,2.90
2023-02-03T20:05:42.491Z,4.18
2023-02-03T20:08:12.965Z,3.25
2023-02-03T20:10:41.136Z,2.60
2023-02-03T20:13:08.444Z,4.53
2023-02-03T20:15:38.492Z,3.60
2023-02-03T20:18:07.139Z,3.43
2023-02-03T20:20:35.152Z,2.83
2023-02-03T20:23:02.093Z,3.88
2023-02-03T20:25:29.002Z,4.03
2023-02-03T20:27:57.401Z,3.17
2023-02-03T20:30:24.157Z,2.33
2023-02-03T20:32:50.970Z,3.67
2023-02-03T20:35:17.749Z,3.13
2023-02-03T20:37:44.557Z,3.80
2023-02-03T20:40:17.123Z,3.72
2023-02-03T20:42:43.984Z,2.40
2023-02-03T20:45:15.817Z,3.73
2023-02-03T20:47:42.819Z,2.75
2023-02-03T20:50:21.716Z,2.70
2023-02-03T20:52:51.405Z,3.22
2023-02-03T20:55:20.409Z,2.95
2023-02-03T20:57:50.315Z,2.63
2023-02-03T21:00:22.721Z,2.95
2023-02-03T21:03:08.363Z,5.10
2023-02-03T21:05:42.135Z,3.03
2023-02-03T21:08:17.340Z,3.38
2023-02-03T21:10:45.700Z,4.22
2023-02-03T21:13:27.970Z,2.80
2023-02-03T21:16:04.488Z,3.43
2023-02-03T21:18:34.160Z,3.77
2023-02-03T21:21:01.885Z,3.60
2023-02-03T21:23:39.822Z,3.28
2023-02-03T21:26:19.287Z,4.03
2023-02-03T21:28:48.723Z,3.83
2023-02-03T21:31:28.788Z,3.20
2023-02-03T21:33:58.611Z,3.38
2023-02-03T21:36:28.622Z,3.75
2023-02-03T21:38:59.006Z,3.03
2023-02-03T21:41:36.945Z,2.23
2023-02-03T21:44:27.909Z,3.13
2023-02-03T21:46:57.161Z,2.83
2023-02-03T21:49:24.049Z,3.60
2023-02-03T21:51:50.789Z,2.80
2023-02-03T21:54:31.382Z,2.65
2023-02-03T21:56:58.808Z,2.65
2023-02-03T21:59:33.135Z,4.00
2023-02-03T22:02:02.319Z,5.95
2023-02-03T22:04:31.825Z,3.10
2023-02-03T22:06:58.617Z,4.30
2023-02-03T22:09:27.338Z,2.67
2023-02-03T22:11:56.427Z,4.03
2023-02-03T22:14:30.347Z,2.70
2023-02-03T22:16:57.180Z,3.40
2023-02-03T22:19:23.921Z,4.32
2023-02-03T22:21:52.232Z,2.70
2023-02-03T22:24:18.966Z,2.13
2023-02-03T22:26:47.819Z,4.47
2023-02-03T22:29:14.606Z,2.97
2023-02-03T22:31:43.894Z,4.22
2023-02-03T22:34:15.378Z,2.42
2023-02-03T22:36:42.144Z,2.00
2023-02-03T22:39:11.236Z,3.20
2023-02-03T22:41:41.515Z,3.33
2023-02-03T22:44:08.244Z,3.33
2023-02-03T22:46:34.962Z,2.85
2023-02-03T22:49:03.684Z,3.30
2023-02-03T22:51:31.274Z,3.22
2023-02-03T22:53:58.040Z,2.37
2023-02-03T22:56:24.757Z,3.45
2023-02-03T22:58:51.523Z,4.43
2023-02-03T23:01:18.170Z,2.47
2023-02-03T23:03:44.906Z,2.97
2023-02-03T23:06:11.805Z,2.03
2023-02-03T23:08:38.662Z,3.10
2023-02-03T23:11:05.560Z,1.75
2023-02-03T23:13:34.423Z,2.67
2023-02-03T23:16:01.232Z,3.65
2023-02-03T23:18:28.063Z,3.15
2023-02-03T23:20:55.050Z,2.97
2023-02-03T23:23:24.170Z,3.10
2023-02-03T23:25:51.937Z,3.63
2023-02-03T23:28:18.829Z,2.50
2023-02-03T23:30:45.698Z,4.20
2023-02-03T23:33:13.431Z,2.67
2023-02-03T23:35:45.999Z,2.25
2023-02-03T23:38:14.552Z,2.05
2023-02-03T23:40:41.549Z,2.80
2023-02-03T23:43:08.422Z,2.50
2023-02-03T23:45:36.026Z,3.15
2023-02-03T23:48:03.027Z,3.42
2023-02-03T23:50:30.078Z,2.72
2023-02-03T23:52:56.901Z,2.78
2023-02-03T23:55:24.723Z,2.70
2023-02-03T23:57:51.435Z,2.50
